createdAt,value
2023-02-15T00:02:07.988Z,47.03
2023-02-15T00:04:51.274Z,42.27
2023-02-15T00:07:21.507Z,38.30
2023-02-15T00:09:49.611Z,41.50
2023-02-15T00:12:18.204Z,38.43
2023-02-15T00:14:46.217Z,41.77
2023-02-15T00:17:14.296Z,39.70
2023-02-15T00:19:42.292Z,42.07
2023-02-15T00:22:10.723Z,39.43
2023-02-15T00:24:40.157Z,42.13
2023-02-15T00:27:10.046Z,41.80
2023-02-15T00:29:38.060Z,41.17
2023-02-15T00:32:07.067Z,40.30
2023-02-15T00:34:35.248Z,42.33
2023-02-15T00:37:03.457Z,41.27
2023-02-15T00:39:31.501Z,42.13
2023-02-15T00:42:02.011Z,47.67
2023-02-15T00:44:30.037Z,47.00
2023-02-15T00:46:58.266Z,50.10
2023-02-15T00:49:26.359Z,46.37
2023-02-15T00:51:55.611Z,50.67
2023-02-15T00:54:23.670Z,47.73
2023-02-15T00:56:51.947Z,49.23
2023-02-15T00:59:21.392Z,49.43
2023-02-15T01:01:49.565Z,53.37
2023-02-15T01:04:17.670Z,55.13
2023-02-15T01:06:45.997Z,56.33
2023-02-15T01:09:14.584Z,45.83
2023-02-15T01:11:42.649Z,52.67
2023-02-15T01:14:10.733Z,49.90
2023-02-15T01:16:41.740Z,47.50
2023-02-15T01:19:09.779Z,47.00
2023-02-15T01:21:37.818Z,45.47
2023-02-15T01:24:05.985Z,118.83
2023-02-15T01:26:33.998Z,46.30
2023-02-15T01:29:02.027Z,40.47
2023-02-15T01:31:30.227Z,44.77
2023-02-15T01:33:59.626Z,42.13
2023-02-15T01:36:27.712Z,45.00
2023-02-15T01:38:56.005Z,38.70
2023-02-15T01:41:27.559Z,35.93
2023-02-15T01:43:57.757Z,35.03
2023-02-15T01:46:32.722Z,33.83
2023-02-15T01:49:09.013Z,34.37
2023-02-15T01:51:39.592Z,33.80
2023-02-15T01:54:12.450Z,35.73
2023-02-15T01:56:43.073Z,33.43
2023-02-15T01:59:15.542Z,31.50
2023-02-15T02:01:43.790Z,36.73
2023-02-15T02:04:18.421Z,31.40
2023-02-15T02:06:49.959Z,31.47
2023-02-15T02:09:18.286Z,33.23
2023-02-15T02:11:50.058Z,32.93
2023-02-15T02:14:19.283Z,32.80
2023-02-15T02:16:55.986Z,32.40
2023-02-15T02:20:01.549Z,33.23
2023-02-15T02:23:04.464Z,35.27
2023-02-15T02:26:17.268Z,30.97
2023-02-15T02:29:20.205Z,31.93
2023-02-15T02:32:17.942Z,31.90
2023-02-15T02:34:58.585Z,34.30
2023-02-15T02:37:34.810Z,29.80
2023-02-15T02:40:10.841Z,27.97
2023-02-15T02:42:42.924Z,26.33
2023-02-15T02:45:17.458Z,28.50
2023-02-15T02:47:49.450Z,37.43
2023-02-15T02:50:23.528Z,37.23
2023-02-15T02:52:52.990Z,33.20
2023-02-15T02:55:25.143Z,38.00
2023-02-15T02:57:57.353Z,27.57
2023-02-15T03:00:27.747Z,32.37
2023-02-15T03:03:05.908Z,27.53
2023-02-15T03:05:38.415Z,36.83
2023-02-15T03:08:10.763Z,30.50
2023-02-15T03:10:42.490Z,38.43
2023-02-15T03:13:11.282Z,36.10
2023-02-15T03:15:59.312Z,69.33
2023-02-15T03:18:32.511Z,33.63
2023-02-15T03:21:04.782Z,30.43
2023-02-15T03:23:34.422Z,26.10
2023-02-15T03:26:05.206Z,36.53
2023-02-15T03:28:40.160Z,26.77
2023-02-15T03:31:10.592Z,25.87
2023-02-15T03:33:44.747Z,27.70
2023-02-15T03:36:20.978Z,29.43
2023-02-15T03:39:00.205Z,43.03
2023-02-15T03:41:34.011Z,26.60
2023-02-15T03:44:06.767Z,25.60
2023-02-15T03:46:39.321Z,36.80
2023-02-15T03:49:13.072Z,28.17
2023-02-15T03:51:45.295Z,30.23
2023-02-15T03:54:37.839Z,30.63
2023-02-15T03:57:24.586Z,37.13
2023-02-15T04:00:10.164Z,38.03
2023-02-15T04:02:46.826Z,27.87
2023-02-15T04:05:14.938Z,28.53
2023-02-15T04:07:44.323Z,28.10
2023-02-15T04:10:29.920Z,34.77
2023-02-15T04:12:58.662Z,26.90
2023-02-15T04:15:44.058Z,26.40
2023-02-15T04:18:12.081Z,38.03
2023-02-15T04:20:57.708Z,47.73
2023-02-15T04:23:45.040Z,30.90
2023-02-15T04:26:13.053Z,36.97
2023-02-15T04:28:41.071Z,36.53
2023-02-15T04:31:09.238Z,32.23
2023-02-15T04:33:37.621Z,35.03
2023-02-15T04:36:06.379Z,30.83
2023-02-15T04:38:35.747Z,38.17
2023-02-15T04:41:03.740Z,28.47
2023-02-15T04:43:31.783Z,45.43
2023-02-15T04:46:00.291Z,32.83
2023-02-15T04:48:28.491Z,28.30
2023-02-15T04:50:56.520Z,27.63
2023-02-15T04:53:24.585Z,28.30
2023-02-15T04:55:53.951Z,28.87
2023-02-15T04:58:22.052Z,28.90
2023-02-15T05:00:50.261Z,24.97
2023-02-15T05:03:19.650Z,30.90
2023-02-15T05:05:47.753Z,26.70
2023-02-15T05:08:15.824Z,28.67
2023-02-15T05:10:43.781Z,63.30
2023-02-15T05:13:13.200Z,38.17
2023-02-15T05:15:42.578Z,44.47
2023-02-15T05:18:11.558Z,36.60
2023-02-15T05:20:49.942Z,25.53
2023-02-15T05:23:18.015Z,41.10
2023-02-15T05:26:07.510Z,31.13
2023-02-15T05:28:38.357Z,26.33
2023-02-15T05:31:09.111Z,29.53
2023-02-15T05:33:37.464Z,31.60
2023-02-15T05:36:06.485Z,28.30
2023-02-15T05:38:35.002Z,29.60
2023-02-15T05:41:03.120Z,28.83
2023-02-15T05:43:31.441Z,30.77
2023-02-15T05:46:01.815Z,29.00
2023-02-15T05:48:30.924Z,30.30
2023-02-15T05:51:00.335Z,33.30
2023-02-15T05:53:28.736Z,33.97
2023-02-15T05:56:00.895Z,35.27
2023-02-15T05:58:31.345Z,33.43
2023-02-15T06:01:00.924Z,26.93
2023-02-15T06:03:29.777Z,28.57
2023-02-15T06:05:57.888Z,32.97
2023-02-15T06:08:26.030Z,32.80
2023-02-15T06:10:54.187Z,26.97
2023-02-15T06:13:22.223Z,32.90
2023-02-15T06:15:50.339Z,27.80
2023-02-15T06:18:19.784Z,24.73
2023-02-15T06:20:48.633Z,27.73
2023-02-15T06:23:17.104Z,28.60
2023-02-15T06:25:47.039Z,25.40
2023-02-15T06:28:15.539Z,27.17
2023-02-15T06:30:43.634Z,27.33
2023-02-15T06:33:11.742Z,29.20
2023-02-15T06:35:41.182Z,32.03
2023-02-15T06:38:09.301Z,36.47
2023-02-15T06:40:37.509Z,30.60
2023-02-15T06:43:05.577Z,27.53
2023-02-15T06:45:33.691Z,28.03
2023-02-15T06:48:01.972Z,30.60
2023-02-15T06:50:30.131Z,29.73
2023-02-15T06:53:00.445Z,32.30
2023-02-15T06:55:28.855Z,35.40
2023-02-15T06:57:56.882Z,31.53
2023-02-15T07:00:25.137Z,32.23
2023-02-15T07:02:58.528Z,32.00
2023-02-15T07:05:31.561Z,29.77
2023-02-15T07:08:01.867Z,31.37
2023-02-15T07:10:30.164Z,33.20
2023-02-15T07:12:57.332Z,27.37
2023-02-15T07:15:25.450Z,27.53
2023-02-15T07:17:53.731Z,27.80
2023-02-15T07:20:23.908Z,28.70
2023-02-15T07:22:52.558Z,28.90
2023-02-15T07:25:22.173Z,31.10
2023-02-15T07:27:50.379Z,30.77
2023-02-15T07:30:19.164Z,30.03
2023-02-15T07:33:05.666Z,29.53
2023-02-15T07:35:33.933Z,27.30
2023-02-15T07:38:02.270Z,34.13
2023-02-15T07:40:31.788Z,32.70
2023-02-15T07:43:00.532Z,28.47
2023-02-15T07:45:28.954Z,29.33
2023-02-15T07:47:57.041Z,29.30
2023-02-15T07:50:25.303Z,30.33
2023-02-15T07:52:53.553Z,30.30
2023-02-15T07:55:21.807Z,30.03
2023-02-15T07:57:52.437Z,28.83
2023-02-15T08:00:24.491Z,29.67
2023-02-15T08:03:14.259Z,29.80
2023-02-15T08:05:43.380Z,29.17
2023-02-15T08:08:30.705Z,33.57
2023-02-15T08:11:21.323Z,31.30
2023-02-15T08:13:55.922Z,30.43
2023-02-15T08:16:29.231Z,31.70
2023-02-15T08:18:58.583Z,32.77
2023-02-15T08:21:28.889Z,33.03
2023-02-15T08:23:59.510Z,33.23
2023-02-15T08:26:29.284Z,34.13
2023-02-15T08:28:59.518Z,35.27
2023-02-15T08:31:28.539Z,36.37
2023-02-15T08:33:58.440Z,35.30
2023-02-15T08:36:28.683Z,35.03
2023-02-15T08:38:58.981Z,35.07
2023-02-15T08:41:30.336Z,34.97
2023-02-15T08:44:01.458Z,36.57
2023-02-15T08:46:31.036Z,37.70
2023-02-15T08:48:59.870Z,37.00
2023-02-15T08:51:30.111Z,36.33
2023-02-15T08:53:59.693Z,37.20
2023-02-15T08:56:30.033Z,38.53
2023-02-15T08:58:59.777Z,39.37
2023-02-15T09:01:29.934Z,43.90
2023-02-15T09:04:00.423Z,43.13
2023-02-15T09:06:29.765Z,42.17
2023-02-15T09:08:58.511Z,42.60
2023-02-15T09:11:28.823Z,43.30
2023-02-15T09:14:00.249Z,42.53
2023-02-15T09:16:30.662Z,40.33
2023-02-15T09:18:59.474Z,42.87
2023-02-15T09:21:29.116Z,42.03
2023-02-15T09:24:00.740Z,42.40
2023-02-15T09:26:30.981Z,42.00
2023-02-15T09:29:04.407Z,45.87
2023-02-15T09:31:34.513Z,44.27
2023-02-15T09:34:03.458Z,45.63
2023-02-15T09:36:36.451Z,43.10
2023-02-15T09:39:10.049Z,44.77
2023-02-15T09:42:17.313Z,43.80
2023-02-15T09:45:05.479Z,46.63
2023-02-15T09:47:55.928Z,46.57
2023-02-15T09:50:32.429Z,46.13
2023-02-15T09:53:17.027Z,48.80
2023-02-15T09:55:56.121Z,47.57
2023-02-15T09:58:35.913Z,48.93
2023-02-15T10:01:13.666Z,50.77
2023-02-15T10:03:56.507Z,49.27
2023-02-15T10:06:40.158Z,51.00
2023-02-15T10:09:27.752Z,49.33
2023-02-15T10:12:09.954Z,49.47
2023-02-15T10:15:10.205Z,50.00
2023-02-15T10:17:52.769Z,47.27
2023-02-15T10:20:33.976Z,51.03
2023-02-15T10:23:17.935Z,50.77
2023-02-15T10:25:51.145Z,52.13
2023-02-15T10:28:21.568Z,49.20
2023-02-15T10:30:52.231Z,49.80
2023-02-15T10:33:41.243Z,49.20
2023-02-15T10:36:22.095Z,51.57
2023-02-15T10:38:59.114Z,52.93
2023-02-15T10:41:37.812Z,51.10
2023-02-15T10:44:27.703Z,53.13
2023-02-15T10:47:17.198Z,53.87
2023-02-15T10:50:04.406Z,55.37
2023-02-15T10:52:44.352Z,55.63
2023-02-15T10:55:18.395Z,52.23
2023-02-15T10:57:53.544Z,52.30
2023-02-15T11:00:32.314Z,54.20
2023-02-15T11:03:31.959Z,50.47
2023-02-15T11:06:07.146Z,52.17
2023-02-15T11:08:39.036Z,53.07
2023-02-15T11:11:11.147Z,53.43
2023-02-15T11:13:43.315Z,53.23
2023-02-15T11:16:18.662Z,51.20
2023-02-15T11:18:51.137Z,54.10
2023-02-15T11:21:24.849Z,50.83
2023-02-15T11:23:54.024Z,53.70
2023-02-15T11:26:29.473Z,54.20
2023-02-15T11:29:01.210Z,53.47
2023-02-15T11:31:38.373Z,54.63
2023-02-15T11:34:15.416Z,52.63
2023-02-15T11:36:47.011Z,55.93
2023-02-15T11:39:18.402Z,54.83
2023-02-15T11:41:54.828Z,53.47
2023-02-15T11:44:28.344Z,52.33
2023-02-15T11:46:56.457Z,53.60
2023-02-15T11:49:29.496Z,52.10
2023-02-15T11:51:59.797Z,51.53
2023-02-15T11:54:31.198Z,49.33
2023-02-15T11:57:03.358Z,51.20
2023-02-15T11:59:34.697Z,49.80
2023-02-15T12:02:02.787Z,49.60
2023-02-15T12:04:35.490Z,51.07
2023-02-15T12:07:16.229Z,48.87
2023-02-15T12:09:52.665Z,47.57
2023-02-15T12:12:26.112Z,48.10
2023-02-15T12:14:55.431Z,49.37
2023-02-15T12:17:26.065Z,50.90
2023-02-15T12:19:57.309Z,50.17
2023-02-15T12:22:29.685Z,50.40
2023-02-15T12:25:01.006Z,51.37
2023-02-15T12:27:31.641Z,50.20
2023-02-15T12:30:03.254Z,49.80
2023-02-15T12:32:36.625Z,50.07
2023-02-15T12:35:15.333Z,48.50
2023-02-15T12:37:55.960Z,50.07
2023-02-15T12:40:26.867Z,48.17
2023-02-15T12:42:54.933Z,50.03
2023-02-15T12:45:26.377Z,54.30
2023-02-15T12:48:18.119Z,51.70
2023-02-15T12:50:54.412Z,51.57
2023-02-15T12:53:37.447Z,54.10
2023-02-15T12:56:07.554Z,50.93
2023-02-15T12:58:37.061Z,49.97
2023-02-15T13:01:13.140Z,52.30
2023-02-15T13:03:57.897Z,49.40
2023-02-15T13:06:27.669Z,48.27
2023-02-15T13:09:00.514Z,51.13
2023-02-15T13:11:35.269Z,51.20
2023-02-15T13:14:05.270Z,49.27
2023-02-15T13:16:36.115Z,51.30
2023-02-15T13:19:08.940Z,51.20
2023-02-15T13:21:41.584Z,49.77
2023-02-15T13:24:20.734Z,48.30
2023-02-15T13:26:49.671Z,51.43
2023-02-15T13:29:23.484Z,46.87
2023-02-15T13:31:53.307Z,45.80
2023-02-15T13:34:26.899Z,45.53
2023-02-15T13:37:03.466Z,44.40
2023-02-15T13:39:41.651Z,46.43
2023-02-15T13:42:22.521Z,45.00
2023-02-15T13:45:04.566Z,44.07
2023-02-15T13:47:38.913Z,42.90
2023-02-15T13:50:20.251Z,42.97
2023-02-15T13:52:58.902Z,41.00
2023-02-15T13:55:42.206Z,40.93
2023-02-15T13:58:31.682Z,41.40
2023-02-15T14:01:10.469Z,38.67
2023-02-15T14:03:52.150Z,38.20
2023-02-15T14:06:37.164Z,36.83
2023-02-15T14:09:17.974Z,38.10
2023-02-15T14:11:58.334Z,36.47
2023-02-15T14:15:11.117Z,34.37
2023-02-15T14:17:49.855Z,36.60
2023-02-15T14:20:26.747Z,38.73
2023-02-15T14:23:07.026Z,42.27
2023-02-15T14:25:41.467Z,36.33
2023-02-15T14:28:15.224Z,36.00
2023-02-15T14:30:47.359Z,33.83
2023-02-15T14:33:34.946Z,34.43
2023-02-15T14:36:07.559Z,33.13
2023-02-15T14:38:49.084Z,35.93
2023-02-15T14:41:22.050Z,34.00
2023-02-15T14:44:00.845Z,32.40
2023-02-15T14:46:36.866Z,35.60
2023-02-15T14:49:11.716Z,35.00
2023-02-15T14:52:00.206Z,36.00
2023-02-15T14:55:00.452Z,35.63
2023-02-15T14:57:35.017Z,34.63
2023-02-15T15:00:32.489Z,36.47
2023-02-15T15:03:01.711Z,33.90
2023-02-15T15:05:36.303Z,34.53
2023-02-15T15:08:06.830Z,50.83
2023-02-15T15:10:44.050Z,37.20
2023-02-15T15:13:39.024Z,36.97
2023-02-15T15:16:32.063Z,35.30
2023-02-15T15:19:01.323Z,36.80
2023-02-15T15:22:05.762Z,37.47
2023-02-15T15:24:53.814Z,36.27
2023-02-15T15:27:55.423Z,36.93
2023-02-15T15:31:02.963Z,37.23
2023-02-15T15:34:00.154Z,37.23
2023-02-15T15:36:56.364Z,35.40
2023-02-15T15:39:56.641Z,35.90
2023-02-15T15:42:34.998Z,37.40
2023-02-15T15:45:44.965Z,33.67
2023-02-15T15:48:30.732Z,35.57
2023-02-15T15:51:07.914Z,33.80
2023-02-15T15:53:43.232Z,37.27
2023-02-15T15:56:17.314Z,37.77
2023-02-15T15:58:48.637Z,35.53
2023-02-15T16:01:17.279Z,35.63
2023-02-15T16:03:53.096Z,37.43
2023-02-15T16:06:35.902Z,35.70
2023-02-15T16:09:15.819Z,41.73
2023-02-15T16:11:44.612Z,43.40
2023-02-15T16:14:18.384Z,38.20
2023-02-15T16:16:53.157Z,36.67
2023-02-15T16:19:25.683Z,39.53
2023-02-15T16:21:57.509Z,39.40
2023-02-15T16:24:48.316Z,39.43
2023-02-15T16:27:36.571Z,37.83
2023-02-15T16:30:23.476Z,34.47
2023-02-15T16:32:54.921Z,36.33
2023-02-15T16:35:24.141Z,37.37
2023-02-15T16:37:53.660Z,37.07
2023-02-15T16:40:35.628Z,35.70
2023-02-15T16:43:07.572Z,37.23
2023-02-15T16:45:38.074Z,35.47
2023-02-15T16:48:13.892Z,35.00
2023-02-15T16:50:47.998Z,36.90
2023-02-15T16:53:22.135Z,35.33
2023-02-15T16:55:53.504Z,38.47
2023-02-15T16:58:34.276Z,35.27
2023-02-15T17:01:04.542Z,37.67
2023-02-15T17:03:33.050Z,38.13
2023-02-15T17:06:03.825Z,39.00
2023-02-15T17:08:35.137Z,40.50
2023-02-15T17:11:18.624Z,39.83
2023-02-15T17:14:16.375Z,40.77
2023-02-15T17:16:50.097Z,40.07
2023-02-15T17:19:26.673Z,40.50
2023-02-15T17:21:57.900Z,40.60
2023-02-15T17:24:36.802Z,44.03
2023-02-15T17:27:12.396Z,45.00
2023-02-15T17:29:43.489Z,42.97
2023-02-15T17:32:19.068Z,42.97
2023-02-15T17:35:00.465Z,43.10
2023-02-15T17:37:31.799Z,43.17
2023-02-15T17:40:03.024Z,44.60
2023-02-15T17:42:31.146Z,44.57
2023-02-15T17:44:59.289Z,44.83
2023-02-15T17:47:27.824Z,62.57
2023-02-15T17:49:56.603Z,44.67
2023-02-15T17:52:26.228Z,46.43
2023-02-15T17:55:11.922Z,45.42
2023-02-15T17:57:41.704Z,42.93
2023-02-15T18:00:32.375Z,42.77
2023-02-15T18:03:18.065Z,41.73
2023-02-15T18:06:03.560Z,41.37
2023-02-15T18:08:49.492Z,41.00
2023-02-15T18:11:35.191Z,41.20
2023-02-15T18:14:05.315Z,42.60
2023-02-15T18:16:36.115Z,42.40
2023-02-15T18:19:06.204Z,43.70
2023-02-15T18:21:35.768Z,44.23
2023-02-15T18:24:03.876Z,44.27
2023-02-15T18:26:32.123Z,47.07
2023-02-15T18:29:00.438Z,43.77
2023-02-15T18:31:30.008Z,47.30
2023-02-15T18:34:02.762Z,45.47
2023-02-15T18:36:34.775Z,44.50
2023-02-15T18:39:08.778Z,45.47
2023-02-15T18:41:37.048Z,52.00
2023-02-15T18:44:11.035Z,47.27
2023-02-15T18:46:40.690Z,46.90
2023-02-15T18:49:08.727Z,44.17
2023-02-15T18:51:40.364Z,45.13
2023-02-15T18:54:20.641Z,45.40
2023-02-15T18:56:54.564Z,46.70
2023-02-15T18:59:23.441Z,43.23
2023-02-15T19:01:54.038Z,45.43
2023-02-15T19:04:24.237Z,47.03
2023-02-15T19:06:55.182Z,46.60
2023-02-15T19:09:26.206Z,45.10
2023-02-15T19:11:55.926Z,45.13
2023-02-15T19:14:29.666Z,45.10
2023-02-15T19:17:01.162Z,42.60
2023-02-15T19:19:29.366Z,45.17
2023-02-15T19:21:57.574Z,46.10
2023-02-15T19:24:34.747Z,45.80
2023-02-15T19:27:03.074Z,44.83
2023-02-15T19:29:31.749Z,45.23
2023-02-15T19:32:01.318Z,46.13
2023-02-15T19:34:29.885Z,47.43
2023-02-15T19:36:58.328Z,50.33
2023-02-15T19:39:29.845Z,54.03
2023-02-15T19:41:58.282Z,50.77
2023-02-15T19:44:26.530Z,48.97
2023-02-15T19:46:54.653Z,48.70
2023-02-15T19:49:24.396Z,45.53
2023-02-15T19:51:52.976Z,45.40
2023-02-15T19:54:30.789Z,44.93
2023-02-15T19:56:59.540Z,47.20
2023-02-15T19:59:29.822Z,45.83
2023-02-15T20:01:58.479Z,43.73
2023-02-15T20:04:28.355Z,46.23
2023-02-15T20:06:58.841Z,43.97
2023-02-15T20:09:30.830Z,44.37
2023-02-15T20:11:59.348Z,44.70
2023-02-15T20:14:27.445Z,44.10
2023-02-15T20:16:55.560Z,45.13
2023-02-15T20:19:23.663Z,42.90
2023-02-15T20:21:55.032Z,46.70
2023-02-15T20:24:25.901Z,45.30
2023-02-15T20:26:54.241Z,47.13
2023-02-15T20:29:22.390Z,45.87
2023-02-15T20:31:52.870Z,46.23
2023-02-15T20:34:23.680Z,46.60
2023-02-15T20:36:53.454Z,44.63
2023-02-15T20:39:22.933Z,47.60
2023-02-15T20:41:51.697Z,47.53
2023-02-15T20:44:22.467Z,58.03
2023-02-15T20:46:52.174Z,48.70
2023-02-15T20:49:20.420Z,46.80
2023-02-15T20:51:49.132Z,47.10
2023-02-15T20:54:20.708Z,47.63
2023-02-15T20:56:49.500Z,47.00
2023-02-15T20:59:24.329Z,44.87
2023-02-15T21:01:55.539Z,44.20
2023-02-15T21:04:27.566Z,45.37
2023-02-15T21:06:56.556Z,51.77
2023-02-15T21:09:26.084Z,47.33
2023-02-15T21:11:57.332Z,47.97
2023-02-15T21:14:27.582Z,49.23
2023-02-15T21:16:55.761Z,48.83
2023-02-15T21:19:25.079Z,49.77
2023-02-15T21:21:54.672Z,49.50
2023-02-15T21:24:27.707Z,48.63
2023-02-15T21:26:57.207Z,52.43
2023-02-15T21:29:27.037Z,52.50
2023-02-15T21:31:58.228Z,52.07
2023-02-15T21:34:26.876Z,51.37
2023-02-15T21:36:55.219Z,52.30
2023-02-15T21:39:25.268Z,52.40
2023-02-15T21:42:13.856Z,53.93
2023-02-15T21:44:59.487Z,52.33
2023-02-15T21:47:49.028Z,53.40
2023-02-15T21:50:36.250Z,52.73
2023-02-15T21:53:05.832Z,50.53
2023-02-15T21:55:34.465Z,53.30
2023-02-15T21:58:04.227Z,55.03
2023-02-15T22:00:33.896Z,53.33
2023-02-15T22:03:02.393Z,52.93
2023-02-15T22:05:31.859Z,54.37
2023-02-15T22:08:00.346Z,52.70
2023-02-15T22:10:31.936Z,57.50
2023-02-15T22:13:03.473Z,53.73
2023-02-15T22:15:37.574Z,52.33
2023-02-15T22:18:07.012Z,52.63
2023-02-15T22:20:35.085Z,55.40
2023-02-15T22:23:03.169Z,56.43
2023-02-15T22:25:31.319Z,56.30
2023-02-15T22:27:59.405Z,54.00
2023-02-15T22:30:32.197Z,51.33
2023-02-15T22:33:01.406Z,53.50
2023-02-15T22:35:31.362Z,53.70
2023-02-15T22:37:59.832Z,53.23
2023-02-15T22:40:30.584Z,53.40
2023-02-15T22:43:01.681Z,54.63
2023-02-15T22:45:32.678Z,53.03
2023-02-15T22:48:01.640Z,55.27
2023-02-15T22:50:31.497Z,52.47
2023-02-15T22:53:01.296Z,50.90
2023-02-15T22:55:33.280Z,50.63
2023-02-15T22:58:02.326Z,53.33
2023-02-15T23:00:36.248Z,52.30
2023-02-15T23:03:13.770Z,53.07
2023-02-15T23:05:41.954Z,51.97
2023-02-15T23:08:10.591Z,51.27
2023-02-15T23:10:39.989Z,54.43
2023-02-15T23:13:26.084Z,52.50
2023-02-15T23:15:58.379Z,51.40
2023-02-15T23:18:29.410Z,53.87
2023-02-15T23:20:59.824Z,51.93
2023-02-15T23:23:33.173Z,49.87
2023-02-15T23:26:04.208Z,52.60
2023-02-15T23:28:36.201Z,54.47
2023-02-15T23:31:16.092Z,52.97
2023-02-15T23:33:44.354Z,51.53
2023-02-15T23:36:26.863Z,53.50
2023-02-15T23:38:56.216Z,51.00
2023-02-15T23:41:26.200Z,51.83
2023-02-15T23:43:58.009Z,53.50
2023-02-15T23:46:37.243Z,50.30
2023-02-15T23:49:14.801Z,55.50
2023-02-15T23:51:44.409Z,51.73
2023-02-15T23:54:12.742Z,53.20
2023-02-15T23:56:41.788Z,52.70
2023-02-15T23:59:17.819Z,53.83
